sensor_id;sensor_type;location;lat;lon;timestamp;temperature;humidity
23703;DHT22;12030;50.376;8.762;2022-07-22T00:00:53;17.10;99.90
23703;DHT22;12030;50.376;8.762;2022-07-22T00:03:19;17.10;99.90
23703;DHT22;12030;50.376;8.762;2022-07-22T00:05:45;17.00;99.90
23703;DHT22;12030;50.376;8.762;2022-07-22T00:08:11;17.00;99.90
23703;DHT22;12030;50.376;8.762;2022-07-22T00:10:36;17.00;99.90
23703;DHT22;12030;50.376;8.762;2022-07-22T00:13:02;16.90;99.90
23703;DHT22;12030;50.376;8.762;2022-07-22T00:15:27;16.80;99.90
23703;DHT22;12030;50.376;8.762;2022-07-22T00:17:53;16.80;99.90
23703;DHT22;12030;50.376;8.762;2022-07-22T00:20:20;16.90;99.90
23703;DHT22;12030;50.376;8.762;2022-07-22T00:22:45;16.90;99.90
23703;DHT22;12030;50.376;8.762;2022-07-22T00:25:11;16.90;99.90
23703;DHT22;12030;50.376;8.762;2022-07-22T00:27:37;17.00;99.90
23703;DHT22;12030;50.376;8.762;2022-07-22T00:30:03;17.00;99.90
23703;DHT22;12030;50.376;8.762;2022-07-22T00:32:29;17.10;99.90
23703;DHT22;12030;50.376;8.762;2022-07-22T00:34:55;17.20;99.90
23703;DHT22;12030;50.376;8.762;2022-07-22T00:37:20;17.20;99.90
23703;DHT22;12030;50.376;8.762;2022-07-22T00:39:46;17.20;99.90
23703;DHT22;12030;50.376;8.762;2022-07-22T00:42:13;17.20;99.90
23703;DHT22;12030;50.376;8.762;2022-07-22T00:44:39;17.10;99.90
23703;DHT22;12030;50.376;8.762;2022-07-22T00:47:05;17.10;99.90
23703;DHT22;12030;50.376;8.762;2022-07-22T00:49:30;17.10;99.90
23703;DHT22;12030;50.376;8.762;2022-07-22T00:51:56;17.00;99.90
23703;DHT22;12030;50.376;8.762;2022-07-22T00:54:22;17.00;99.90
23703;DHT22;12030;50.376;8.762;2022-07-22T00:56:48;17.00;99.90
23703;DHT22;12030;50.376;8.762;2022-07-22T00:59:13;17.10;99.90
23703;DHT22;12030;50.376;8.762;2022-07-22T01:01:39;17.10;99.90
23703;DHT22;12030;50.376;8.762;2022-07-22T01:04:05;17.10;99.90
23703;DHT22;12030;50.376;8.762;2022-07-22T01:06:31;17.20;99.90
23703;DHT22;12030;50.376;8.762;2022-07-22T01:08:57;17.20;99.90
23703;DHT22;12030;50.376;8.762;2022-07-22T01:11:23;17.30;99.90
23703;DHT22;12030;50.376;8.762;2022-07-22T01:13:49;17.40;99.90
23703;DHT22;12030;50.376;8.762;2022-07-22T01:16:16;17.40;99.90
23703;DHT22;12030;50.376;8.762;2022-07-22T01:18:43;17.50;99.90
23703;DHT22;12030;50.376;8.762;2022-07-22T01:21:09;17.50;99.90
23703;DHT22;12030;50.376;8.762;2022-07-22T01:23:35;17.40;99.90
23703;DHT22;12030;50.376;8.762;2022-07-22T01:26:02;17.40;99.90
23703;DHT22;12030;50.376;8.762;2022-07-22T01:28:27;17.50;99.90
23703;DHT22;12030;50.376;8.762;2022-07-22T01:30:53;17.60;99.90
23703;DHT22;12030;50.376;8.762;2022-07-22T01:33:21;17.60;99.90
23703;DHT22;12030;50.376;8.762;2022-07-22T01:35:47;17.60;99.90
23703;DHT22;12030;50.376;8.762;2022-07-22T01:38:13;17.60;99.90
23703;DHT22;12030;50.376;8.762;2022-07-22T01:40:40;17.50;99.90
23703;DHT22;12030;50.376;8.762;2022-07-22T01:43:06;17.50;99.90
23703;DHT22;12030;50.376;8.762;2022-07-22T01:45:32;17.40;99.90
23703;DHT22;12030;50.376;8.762;2022-07-22T01:47:58;17.40;99.90
23703;DHT22;12030;50.376;8.762;2022-07-22T01:50:24;17.30;99.90
23703;DHT22;12030;50.376;8.762;2022-07-22T01:52:49;17.20;99.90
23703;DHT22;12030;50.376;8.762;2022-07-22T01:55:16;17.20;99.90
23703;DHT22;12030;50.376;8.762;2022-07-22T01:57:42;17.20;99.90
23703;DHT22;12030;50.376;8.762;2022-07-22T02:00:09;17.20;99.90
23703;DHT22;12030;50.376;8.762;2022-07-22T02:02:35;17.20;99.90
23703;DHT22;12030;50.376;8.762;2022-07-22T02:05:03;17.20;99.90
23703;DHT22;12030;50.376;8.762;2022-07-22T02:07:29;17.10;99.90
23703;DHT22;12030;50.376;8.762;2022-07-22T02:09:55;17.20;99.90
23703;DHT22;12030;50.376;8.762;2022-07-22T02:12:20;17.20;99.90
23703;DHT22;12030;50.376;8.762;2022-07-22T02:14:47;17.20;99.90
23703;DHT22;12030;50.376;8.762;2022-07-22T02:17:12;17.10;99.90
23703;DHT22;12030;50.376;8.762;2022-07-22T02:19:38;17.10;99.90
23703;DHT22;12030;50.376;8.762;2022-07-22T02:22:04;17.10;99.90
23703;DHT22;12030;50.376;8.762;2022-07-22T02:24:30;17.10;99.90
23703;DHT22;12030;50.376;8.762;2022-07-22T02:26:56;17.10;99.90
23703;DHT22;12030;50.376;8.762;2022-07-22T02:29:21;17.10;99.90
23703;DHT22;12030;50.376;8.762;2022-07-22T02:31:47;17.10;99.90
23703;DHT22;12030;50.376;8.762;2022-07-22T02:34:13;17.10;99.90
23703;DHT22;12030;50.376;8.762;2022-07-22T02:36:39;17.10;99.90
23703;DHT22;12030;50.376;8.762;2022-07-22T02:39:05;17.10;99.90
23703;DHT22;12030;50.376;8.762;2022-07-22T02:41:30;17.00;99.90
23703;DHT22;12030;50.376;8.762;2022-07-22T02:43:56;17.00;99.90
23703;DHT22;12030;50.376;8.762;2022-07-22T02:46:23;16.90;99.90
23703;DHT22;12030;50.376;8.762;2022-07-22T02:48:48;16.90;99.90
23703;DHT22;12030;50.376;8.762;2022-07-22T02:51:14;16.80;99.90
23703;DHT22;12030;50.376;8.762;2022-07-22T02:53:40;16.80;99.90
23703;DHT22;12030;50.376;8.762;2022-07-22T02:56:05;16.80;99.90
23703;DHT22;12030;50.376;8.762;2022-07-22T02:58:31;16.80;99.90
23703;DHT22;12030;50.376;8.762;2022-07-22T03:00:57;16.80;99.90
23703;DHT22;12030;50.376;8.762;2022-07-22T03:03:22;16.80;99.90
23703;DHT22;12030;50.376;8.762;2022-07-22T03:05:49;16.80;99.90
23703;DHT22;12030;50.376;8.762;2022-07-22T03:08:15;16.80;99.90
23703;DHT22;12030;50.376;8.762;2022-07-22T03:10:41;16.80;99.90
23703;DHT22;12030;50.376;8.762;2022-07-22T03:13:06;16.80;99.90
23703;DHT22;12030;50.376;8.762;2022-07-22T03:15:32;16.70;99.90
23703;DHT22;12030;50.376;8.762;2022-07-22T03:17:57;16.60;99.90
23703;DHT22;12030;50.376;8.762;2022-07-22T03:20:23;16.60;99.90
23703;DHT22;12030;50.376;8.762;2022-07-22T03:22:48;16.60;99.90
23703;DHT22;12030;50.376;8.762;2022-07-22T03:25:14;16.50;99.90
23703;DHT22;12030;50.376;8.762;2022-07-22T03:27:39;16.30;99.90
23703;DHT22;12030;50.376;8.762;2022-07-22T03:30:05;16.30;99.90
23703;DHT22;12030;50.376;8.762;2022-07-22T03:32:31;16.20;99.90
23703;DHT22;12030;50.376;8.762;2022-07-22T03:34:57;16.20;99.90
23703;DHT22;12030;50.376;8.762;2022-07-22T03:37:22;16.10;99.90
23703;DHT22;12030;50.376;8.762;2022-07-22T03:39:48;16.00;99.90
23703;DHT22;12030;50.376;8.762;2022-07-22T03:42:14;16.00;99.90
23703;DHT22;12030;50.376;8.762;2022-07-22T03:44:39;15.90;99.90
23703;DHT22;12030;50.376;8.762;2022-07-22T03:47:05;15.80;99.90
23703;DHT22;12030;50.376;8.762;2022-07-22T03:49:31;15.90;99.90
23703;DHT22;12030;50.376;8.762;2022-07-22T03:51:57;15.90;99.90
23703;DHT22;12030;50.376;8.762;2022-07-22T03:54:23;15.80;99.90
23703;DHT22;12030;50.376;8.762;2022-07-22T03:56:48;15.90;99.90
23703;DHT22;12030;50.376;8.762;2022-07-22T03:59:15;15.90;99.90
23703;DHT22;12030;50.376;8.762;2022-07-22T04:01:40;15.90;99.90
23703;DHT22;12030;50.376;8.762;2022-07-22T04:04:06;15.90;99.90
23703;DHT22;12030;50.376;8.762;2022-07-22T04:06:31;15.80;99.90
23703;DHT22;12030;50.376;8.762;2022-07-22T04:08:57;15.80;99.90
23703;DHT22;12030;50.376;8.762;2022-07-22T04:11:23;15.80;99.90
23703;DHT22;12030;50.376;8.762;2022-07-22T04:13:48;15.70;99.90
23703;DHT22;12030;50.376;8.762;2022-07-22T04:16:14;15.70;99.90
23703;DHT22;12030;50.376;8.762;2022-07-22T04:18:39;15.70;99.90
23703;DHT22;12030;50.376;8.762;2022-07-22T04:21:05;15.70;99.90
23703;DHT22;12030;50.376;8.762;2022-07-22T04:23:30;15.70;99.90
23703;DHT22;12030;50.376;8.762;2022-07-22T04:25:56;15.70;99.90
23703;DHT22;12030;50.376;8.762;2022-07-22T04:28:21;15.70;99.90
23703;DHT22;12030;50.376;8.762;2022-07-22T04:30:48;15.70;99.90
23703;DHT22;12030;50.376;8.762;2022-07-22T04:33:14;15.70;99.90
23703;DHT22;12030;50.376;8.762;2022-07-22T04:35:39;15.70;99.90
23703;DHT22;12030;50.376;8.762;2022-07-22T04:38:05;15.80;99.90
23703;DHT22;12030;50.376;8.762;2022-07-22T04:40:30;15.90;99.90
23703;DHT22;12030;50.376;8.762;2022-07-22T04:42:56;15.90;99.90
23703;DHT22;12030;50.376;8.762;2022-07-22T04:45:21;15.90;99.90
23703;DHT22;12030;50.376;8.762;2022-07-22T04:47:47;15.90;99.90
23703;DHT22;12030;50.376;8.762;2022-07-22T04:50:12;15.90;99.90
23703;DHT22;12030;50.376;8.762;2022-07-22T04:52:38;15.80;99.90
23703;DHT22;12030;50.376;8.762;2022-07-22T04:55:04;15.80;99.90
23703;DHT22;12030;50.376;8.762;2022-07-22T04:57:29;15.70;99.90
23703;DHT22;12030;50.376;8.762;2022-07-22T04:59:55;15.90;99.90
23703;DHT22;12030;50.376;8.762;2022-07-22T05:02:20;16.00;99.90
23703;DHT22;12030;50.376;8.762;2022-07-22T05:04:46;16.20;99.90
23703;DHT22;12030;50.376;8.762;2022-07-22T05:07:12;16.30;99.90
23703;DHT22;12030;50.376;8.762;2022-07-22T05:09:37;16.50;99.90
23703;DHT22;12030;50.376;8.762;2022-07-22T05:12:03;16.60;99.90
23703;DHT22;12030;50.376;8.762;2022-07-22T05:14:29;16.70;99.90
23703;DHT22;12030;50.376;8.762;2022-07-22T05:16:54;16.80;99.90
23703;DHT22;12030;50.376;8.762;2022-07-22T05:19:20;17.00;99.90
23703;DHT22;12030;50.376;8.762;2022-07-22T05:21:46;17.10;99.90
23703;DHT22;12030;50.376;8.762;2022-07-22T05:24:11;17.20;99.90
23703;DHT22;12030;50.376;8.762;2022-07-22T05:26:37;17.30;99.90
23703;DHT22;12030;50.376;8.762;2022-07-22T05:29:03;17.40;99.90
23703;DHT22;12030;50.376;8.762;2022-07-22T05:31:29;17.70;99.90
23703;DHT22;12030;50.376;8.762;2022-07-22T05:33:55;17.70;99.90
23703;DHT22;12030;50.376;8.762;2022-07-22T05:36:20;17.70;99.90
23703;DHT22;12030;50.376;8.762;2022-07-22T05:38:46;17.80;99.90
23703;DHT22;12030;50.376;8.762;2022-07-22T05:41:11;18.00;99.90
23703;DHT22;12030;50.376;8.762;2022-07-22T05:43:37;18.00;99.90
23703;DHT22;12030;50.376;8.762;2022-07-22T05:46:02;18.10;99.90
23703;DHT22;12030;50.376;8.762;2022-07-22T05:48:28;18.20;99.90
23703;DHT22;12030;50.376;8.762;2022-07-22T05:50:54;18.30;99.90
23703;DHT22;12030;50.376;8.762;2022-07-22T05:53:19;18.40;99.90
23703;DHT22;12030;50.376;8.762;2022-07-22T05:55:44;18.50;99.90
23703;DHT22;12030;50.376;8.762;2022-07-22T05:58:10;18.70;99.90
23703;DHT22;12030;50.376;8.762;2022-07-22T06:00:36;18.80;99.90
23703;DHT22;12030;50.376;8.762;2022-07-22T06:03:01;18.80;99.90
23703;DHT22;12030;50.376;8.762;2022-07-22T06:05:27;18.90;99.90
23703;DHT22;12030;50.376;8.762;2022-07-22T06:07:52;19.00;99.90
23703;DHT22;12030;50.376;8.762;2022-07-22T06:10:18;19.00;99.90
23703;DHT22;12030;50.376;8.762;2022-07-22T06:12:43;19.20;99.90
23703;DHT22;12030;50.376;8.762;2022-07-22T06:15:09;19.20;99.90
23703;DHT22;12030;50.376;8.762;2022-07-22T06:17:35;19.30;99.90
23703;DHT22;12030;50.376;8.762;2022-07-22T06:20:00;19.40;99.90
23703;DHT22;12030;50.376;8.762;2022-07-22T06:22:26;19.60;99.90
23703;DHT22;12030;50.376;8.762;2022-07-22T06:24:51;19.60;99.90
23703;DHT22;12030;50.376;8.762;2022-07-22T06:27:17;19.70;99.90
23703;DHT22;12030;50.376;8.762;2022-07-22T06:29:43;19.80;99.90
23703;DHT22;12030;50.376;8.762;2022-07-22T06:32:08;19.90;99.90
23703;DHT22;12030;50.376;8.762;2022-07-22T06:34:34;19.90;99.90
23703;DHT22;12030;50.376;8.762;2022-07-22T06:36:59;20.00;99.90
23703;DHT22;12030;50.376;8.762;2022-07-22T06:39:25;20.00;99.90
23703;DHT22;12030;50.376;8.762;2022-07-22T06:41:50;20.10;99.90
23703;DHT22;12030;50.376;8.762;2022-07-22T06:44:16;20.10;99.90
23703;DHT22;12030;50.376;8.762;2022-07-22T06:46:42;20.00;99.90
23703;DHT22;12030;50.376;8.762;2022-07-22T06:49:07;19.90;99.90
23703;DHT22;12030;50.376;8.762;2022-07-22T06:51:33;19.90;99.90
23703;DHT22;12030;50.376;8.762;2022-07-22T06:54:00;20.00;99.90
23703;DHT22;12030;50.376;8.762;2022-07-22T06:56:25;20.20;99.90
23703;DHT22;12030;50.376;8.762;2022-07-22T06:58:51;20.10;99.90
23703;DHT22;12030;50.376;8.762;2022-07-22T07:01:17;20.20;99.90
23703;DHT22;12030;50.376;8.762;2022-07-22T07:03:42;20.30;99.90
23703;DHT22;12030;50.376;8.762;2022-07-22T07:06:09;20.40;99.90
23703;DHT22;12030;50.376;8.762;2022-07-22T07:08:37;20.50;99.90
23703;DHT22;12030;50.376;8.762;2022-07-22T07:11:03;20.60;99.90
23703;DHT22;12030;50.376;8.762;2022-07-22T07:13:29;20.50;99.90
23703;DHT22;12030;50.376;8.762;2022-07-22T07:15:54;20.40;99.90
23703;DHT22;12030;50.376;8.762;2022-07-22T07:18:20;20.20;99.90
23703;DHT22;12030;50.376;8.762;2022-07-22T07:20:46;20.30;99.90
23703;DHT22;12030;50.376;8.762;2022-07-22T07:23:11;20.40;99.90
23703;DHT22;12030;50.376;8.762;2022-07-22T07:25:37;20.50;99.90
23703;DHT22;12030;50.376;8.762;2022-07-22T07:28:03;20.60;99.90
23703;DHT22;12030;50.376;8.762;2022-07-22T07:30:29;20.50;99.90
23703;DHT22;12030;50.376;8.762;2022-07-22T07:32:54;20.40;99.90
23703;DHT22;12030;50.376;8.762;2022-07-22T07:35:20;20.40;99.90
23703;DHT22;12030;50.376;8.762;2022-07-22T07:37:46;20.50;99.90
23703;DHT22;12030;50.376;8.762;2022-07-22T07:40:11;20.50;99.90
23703;DHT22;12030;50.376;8.762;2022-07-22T07:42:37;20.60;99.90
23703;DHT22;12030;50.376;8.762;2022-07-22T07:45:03;20.60;99.90
23703;DHT22;12030;50.376;8.762;2022-07-22T07:47:29;20.70;99.90
23703;DHT22;12030;50.376;8.762;2022-07-22T07:49:55;20.80;99.90
23703;DHT22;12030;50.376;8.762;2022-07-22T07:52:22;20.90;99.90
23703;DHT22;12030;50.376;8.762;2022-07-22T07:54:48;21.10;99.90
23703;DHT22;12030;50.376;8.762;2022-07-22T07:57:14;21.20;99.90
23703;DHT22;12030;50.376;8.762;2022-07-22T07:59:40;21.40;99.90
23703;DHT22;12030;50.376;8.762;2022-07-22T08:02:06;21.80;99.90
23703;DHT22;12030;50.376;8.762;2022-07-22T08:04:32;21.90;99.90
23703;DHT22;12030;50.376;8.762;2022-07-22T08:06:58;22.00;99.90
23703;DHT22;12030;50.376;8.762;2022-07-22T08:09:24;22.10;99.90
23703;DHT22;12030;50.376;8.762;2022-07-22T08:11:50;22.20;99.90
23703;DHT22;12030;50.376;8.762;2022-07-22T08:14:15;22.30;99.90
23703;DHT22;12030;50.376;8.762;2022-07-22T08:16:41;22.20;99.90
23703;DHT22;12030;50.376;8.762;2022-07-22T08:19:06;22.10;99.90
23703;DHT22;12030;50.376;8.762;2022-07-22T08:21:32;22.00;99.90
23703;DHT22;12030;50.376;8.762;2022-07-22T08:23:58;21.80;99.90
23703;DHT22;12030;50.376;8.762;2022-07-22T08:26:23;21.90;99.90
23703;DHT22;12030;50.376;8.762;2022-07-22T08:28:49;22.10;99.90
23703;DHT22;12030;50.376;8.762;2022-07-22T08:31:14;22.20;99.90
23703;DHT22;12030;50.376;8.762;2022-07-22T08:33:40;22.30;99.90
23703;DHT22;12030;50.376;8.762;2022-07-22T08:36:06;22.20;99.90
23703;DHT22;12030;50.376;8.762;2022-07-22T08:38:32;22.20;99.90
23703;DHT22;12030;50.376;8.762;2022-07-22T08:40:57;22.10;99.90
23703;DHT22;12030;50.376;8.762;2022-07-22T08:43:24;22.00;99.90
23703;DHT22;12030;50.376;8.762;2022-07-22T08:45:50;21.90;99.90
23703;DHT22;12030;50.376;8.762;2022-07-22T08:48:16;21.90;99.90
23703;DHT22;12030;50.376;8.762;2022-07-22T08:50:42;22.00;99.90
23703;DHT22;12030;50.376;8.762;2022-07-22T08:53:12;22.30;99.90
23703;DHT22;12030;50.376;8.762;2022-07-22T08:55:42;22.50;99.90
23703;DHT22;12030;50.376;8.762;2022-07-22T08:58:08;22.70;99.90
23703;DHT22;12030;50.376;8.762;2022-07-22T09:00:34;22.90;99.90
23703;DHT22;12030;50.376;8.762;2022-07-22T09:03:00;22.90;99.90
23703;DHT22;12030;50.376;8.762;2022-07-22T09:05:32;23.10;99.90
23703;DHT22;12030;50.376;8.762;2022-07-22T09:07:59;23.10;99.90
23703;DHT22;12030;50.376;8.762;2022-07-22T09:10:30;23.30;99.90
23703;DHT22;12030;50.376;8.762;2022-07-22T09:13:02;23.30;99.90
23703;DHT22;12030;50.376;8.762;2022-07-22T09:15:30;23.30;99.90
23703;DHT22;12030;50.376;8.762;2022-07-22T09:17:56;23.40;99.90
23703;DHT22;12030;50.376;8.762;2022-07-22T09:20:22;23.40;99.90
23703;DHT22;12030;50.376;8.762;2022-07-22T09:22:48;23.50;99.90
23703;DHT22;12030;50.376;8.762;2022-07-22T09:25:28;23.60;99.90
23703;DHT22;12030;50.376;8.762;2022-07-22T09:28:09;23.70;99.90
23703;DHT22;12030;50.376;8.762;2022-07-22T09:30:40;23.80;99.90
23703;DHT22;12030;50.376;8.762;2022-07-22T09:33:07;23.80;99.90
23703;DHT22;12030;50.376;8.762;2022-07-22T09:35:33;23.70;99.90
23703;DHT22;12030;50.376;8.762;2022-07-22T09:38:00;23.60;99.90
23703;DHT22;12030;50.376;8.762;2022-07-22T09:40:29;23.50;99.90
23703;DHT22;12030;50.376;8.762;2022-07-22T09:42:57;23.70;99.90
23703;DHT22;12030;50.376;8.762;2022-07-22T09:45:29;23.80;99.90
23703;DHT22;12030;50.376;8.762;2022-07-22T09:47:58;24.00;99.90
23703;DHT22;12030;50.376;8.762;2022-07-22T09:50:26;24.20;99.90
23703;DHT22;12030;50.376;8.762;2022-07-22T09:52:53;24.20;99.90
23703;DHT22;12030;50.376;8.762;2022-07-22T09:55:21;24.30;99.90
23703;DHT22;12030;50.376;8.762;2022-07-22T09:57:48;24.30;99.90
23703;DHT22;12030;50.376;8.762;2022-07-22T10:00:17;24.40;99.90
23703;DHT22;12030;50.376;8.762;2022-07-22T10:02:48;24.50;99.90
23703;DHT22;12030;50.376;8.762;2022-07-22T10:05:18;24.60;99.90
23703;DHT22;12030;50.376;8.762;2022-07-22T10:07:45;24.70;99.90
23703;DHT22;12030;50.376;8.762;2022-07-22T10:10:14;24.80;99.90
23703;DHT22;12030;50.376;8.762;2022-07-22T10:12:40;24.80;99.90
23703;DHT22;12030;50.376;8.762;2022-07-22T10:15:07;24.70;99.90
23703;DHT22;12030;50.376;8.762;2022-07-22T10:17:36;24.80;99.90
23703;DHT22;12030;50.376;8.762;2022-07-22T10:20:03;24.80;99.90
23703;DHT22;12030;50.376;8.762;2022-07-22T10:25:06;24.60;99.90
23703;DHT22;12030;50.376;8.762;2022-07-22T10:27:48;25.20;99.90
23703;DHT22;12030;50.376;8.762;2022-07-22T10:30:16;25.40;99.90
23703;DHT22;12030;50.376;8.762;2022-07-22T10:32:42;25.50;99.90
23703;DHT22;12030;50.376;8.762;2022-07-22T10:37:38;25.70;99.80
23703;DHT22;12030;50.376;8.762;2022-07-22T10:40:11;25.70;99.30
23703;DHT22;12030;50.376;8.762;2022-07-22T10:45:48;25.70;98.00
23703;DHT22;12030;50.376;8.762;2022-07-22T10:48:25;25.80;99.90
23703;DHT22;12030;50.376;8.762;2022-07-22T10:56:27;25.80;98.00
23703;DHT22;12030;50.376;8.762;2022-07-22T10:58:59;25.50;97.50
23703;DHT22;12030;50.376;8.762;2022-07-22T11:01:31;25.60;99.80
23703;DHT22;12030;50.376;8.762;2022-07-22T11:04:26;25.80;98.80
23703;DHT22;12030;50.376;8.762;2022-07-22T11:06:56;25.70;97.40
23703;DHT22;12030;50.376;8.762;2022-07-22T11:09:30;25.70;98.30
23703;DHT22;12030;50.376;8.762;2022-07-22T11:11:56;26.00;99.90
23703;DHT22;12030;50.376;8.762;2022-07-22T11:14:31;26.20;99.50
23703;DHT22;12030;50.376;8.762;2022-07-22T11:17:03;26.50;98.70
23703;DHT22;12030;50.376;8.762;2022-07-22T11:19:30;26.60;97.20
23703;DHT22;12030;50.376;8.762;2022-07-22T11:24:31;26.80;97.60
23703;DHT22;12030;50.376;8.762;2022-07-22T11:26:58;26.90;98.30
23703;DHT22;12030;50.376;8.762;2022-07-22T11:29:35;27.00;97.70
23703;DHT22;12030;50.376;8.762;2022-07-22T11:32:06;27.30;98.20
23703;DHT22;12030;50.376;8.762;2022-07-22T11:34:35;27.40;98.10
23703;DHT22;12030;50.376;8.762;2022-07-22T11:37:00;27.50;96.70
23703;DHT22;12030;50.376;8.762;2022-07-22T11:39:28;27.60;96.20
23703;DHT22;12030;50.376;8.762;2022-07-22T11:41:57;27.80;96.40
23703;DHT22;12030;50.376;8.762;2022-07-22T11:44:25;27.90;96.00
23703;DHT22;12030;50.376;8.762;2022-07-22T11:46:52;28.00;95.50
23703;DHT22;12030;50.376;8.762;2022-07-22T11:49:19;28.00;94.90
23703;DHT22;12030;50.376;8.762;2022-07-22T11:51:45;28.10;95.60
23703;DHT22;12030;50.376;8.762;2022-07-22T11:54:11;28.20;96.50
23703;DHT22;12030;50.376;8.762;2022-07-22T11:56:37;28.40;96.20
23703;DHT22;12030;50.376;8.762;2022-07-22T11:59:04;28.60;94.30
23703;DHT22;12030;50.376;8.762;2022-07-22T12:01:32;28.30;93.70
23703;DHT22;12030;50.376;8.762;2022-07-22T12:04:05;28.20;93.30
23703;DHT22;12030;50.376;8.762;2022-07-22T12:06:33;28.10;93.50
23703;DHT22;12030;50.376;8.762;2022-07-22T12:11:37;28.00;93.00
23703;DHT22;12030;50.376;8.762;2022-07-22T12:16:31;28.10;94.10
23703;DHT22;12030;50.376;8.762;2022-07-22T12:19:02;28.40;94.20
23703;DHT22;12030;50.376;8.762;2022-07-22T12:21:36;28.60;93.50
23703;DHT22;12030;50.376;8.762;2022-07-22T12:24:06;28.90;95.50
23703;DHT22;12030;50.376;8.762;2022-07-22T12:26:48;29.20;94.40
23703;DHT22;12030;50.376;8.762;2022-07-22T12:29:14;29.30;91.60
23703;DHT22;12030;50.376;8.762;2022-07-22T12:31:54;29.50;91.10
23703;DHT22;12030;50.376;8.762;2022-07-22T12:34:34;29.70;92.10
23703;DHT22;12030;50.376;8.762;2022-07-22T12:37:11;29.70;90.50
23703;DHT22;12030;50.376;8.762;2022-07-22T12:39:36;29.60;90.70
23703;DHT22;12030;50.376;8.762;2022-07-22T12:42:02;29.60;92.90
23703;DHT22;12030;50.376;8.762;2022-07-22T12:44:28;29.70;91.70
23703;DHT22;12030;50.376;8.762;2022-07-22T12:46:55;30.10;91.70
23703;DHT22;12030;50.376;8.762;2022-07-22T12:49:23;30.30;92.70
23703;DHT22;12030;50.376;8.762;2022-07-22T12:52:12;30.60;91.80
23703;DHT22;12030;50.376;8.762;2022-07-22T12:54:39;30.90;92.10
23703;DHT22;12030;50.376;8.762;2022-07-22T12:57:06;30.90;91.70
23703;DHT22;12030;50.376;8.762;2022-07-22T12:59:32;30.80;88.40
23703;DHT22;12030;50.376;8.762;2022-07-22T13:01:59;30.90;90.00
23703;DHT22;12030;50.376;8.762;2022-07-22T13:04:24;31.00;91.20
23703;DHT22;12030;50.376;8.762;2022-07-22T13:06:50;31.10;91.00
23703;DHT22;12030;50.376;8.762;2022-07-22T13:09:15;31.20;88.50
23703;DHT22;12030;50.376;8.762;2022-07-22T13:11:41;30.70;86.00
23703;DHT22;12030;50.376;8.762;2022-07-22T13:14:10;30.60;86.90
23703;DHT22;12030;50.376;8.762;2022-07-22T13:16:36;31.00;90.60
23703;DHT22;12030;50.376;8.762;2022-07-22T13:19:03;31.20;90.00
23703;DHT22;12030;50.376;8.762;2022-07-22T13:21:28;31.30;90.30
23703;DHT22;12030;50.376;8.762;2022-07-22T13:23:54;31.40;88.80
23703;DHT22;12030;50.376;8.762;2022-07-22T13:26:20;31.40;87.80
23703;DHT22;12030;50.376;8.762;2022-07-22T13:28:48;31.40;90.00
23703;DHT22;12030;50.376;8.762;2022-07-22T13:31:20;31.50;87.30
23703;DHT22;12030;50.376;8.762;2022-07-22T13:33:46;31.40;86.10
23703;DHT22;12030;50.376;8.762;2022-07-22T13:36:11;31.50;88.60
23703;DHT22;12030;50.376;8.762;2022-07-22T13:38:37;31.60;85.00
23703;DHT22;12030;50.376;8.762;2022-07-22T13:41:02;31.30;84.90
23703;DHT22;12030;50.376;8.762;2022-07-22T13:43:28;31.50;89.50
23703;DHT22;12030;50.376;8.762;2022-07-22T13:45:55;31.60;89.90
23703;DHT22;12030;50.376;8.762;2022-07-22T13:48:21;31.90;88.30
23703;DHT22;12030;50.376;8.762;2022-07-22T13:50:47;31.70;83.60
23703;DHT22;12030;50.376;8.762;2022-07-22T13:53:13;31.60;82.10
23703;DHT22;12030;50.376;8.762;2022-07-22T13:55:39;31.40;84.00
23703;DHT22;12030;50.376;8.762;2022-07-22T13:58:05;31.70;88.30
23703;DHT22;12030;50.376;8.762;2022-07-22T14:00:31;32.00;87.10
23703;DHT22;12030;50.376;8.762;2022-07-22T14:02:56;32.30;85.60
23703;DHT22;12030;50.376;8.762;2022-07-22T14:05:22;32.50;86.00
23703;DHT22;12030;50.376;8.762;2022-07-22T14:07:48;32.70;86.90
23703;DHT22;12030;50.376;8.762;2022-07-22T14:10:13;32.70;84.20
23703;DHT22;12030;50.376;8.762;2022-07-22T14:12:40;32.80;83.90
23703;DHT22;12030;50.376;8.762;2022-07-22T14:15:06;32.70;88.20
23703;DHT22;12030;50.376;8.762;2022-07-22T14:17:33;32.40;81.80
23703;DHT22;12030;50.376;8.762;2022-07-22T14:19:58;32.60;83.10
23703;DHT22;12030;50.376;8.762;2022-07-22T14:22:25;32.70;83.90
23703;DHT22;12030;50.376;8.762;2022-07-22T14:24:50;32.90;82.60
23703;DHT22;12030;50.376;8.762;2022-07-22T14:27:16;33.10;80.80
23703;DHT22;12030;50.376;8.762;2022-07-22T14:29:42;33.00;80.10
23703;DHT22;12030;50.376;8.762;2022-07-22T14:32:07;32.90;82.30
23703;DHT22;12030;50.376;8.762;2022-07-22T14:34:33;33.00;78.50
23703;DHT22;12030;50.376;8.762;2022-07-22T14:36:58;33.00;80.80
23703;DHT22;12030;50.376;8.762;2022-07-22T14:39:24;33.20;80.80
23703;DHT22;12030;50.376;8.762;2022-07-22T14:41:49;33.30;84.60
23703;DHT22;12030;50.376;8.762;2022-07-22T14:44:15;33.50;85.80
23703;DHT22;12030;50.376;8.762;2022-07-22T14:46:41;33.70;82.10
23703;DHT22;12030;50.376;8.762;2022-07-22T14:49:06;33.70;85.10
23703;DHT22;12030;50.376;8.762;2022-07-22T14:51:32;33.40;84.40
23703;DHT22;12030;50.376;8.762;2022-07-22T14:53:58;33.30;77.10
23703;DHT22;12030;50.376;8.762;2022-07-22T14:56:23;32.40;76.10
23703;DHT22;12030;50.376;8.762;2022-07-22T14:58:49;33.40;79.90
23703;DHT22;12030;50.376;8.762;2022-07-22T15:01:15;33.60;79.70
23703;DHT22;12030;50.376;8.762;2022-07-22T15:03:41;33.70;75.80
23703;DHT22;12030;50.376;8.762;2022-07-22T15:06:08;33.60;79.40
23703;DHT22;12030;50.376;8.762;2022-07-22T15:08:34;33.60;78.30
23703;DHT22;12030;50.376;8.762;2022-07-22T15:11:00;33.10;76.50
23703;DHT22;12030;50.376;8.762;2022-07-22T15:13:27;33.30;81.30
23703;DHT22;12030;50.376;8.762;2022-07-22T15:15:53;33.30;82.60
23703;DHT22;12030;50.376;8.762;2022-07-22T15:18:18;33.50;80.90
23703;DHT22;12030;50.376;8.762;2022-07-22T15:20:44;33.50;75.20
23703;DHT22;12030;50.376;8.762;2022-07-22T15:23:09;33.50;76.40
23703;DHT22;12030;50.376;8.762;2022-07-22T15:25:35;33.70;76.10
23703;DHT22;12030;50.376;8.762;2022-07-22T15:28:00;33.60;75.70
23703;DHT22;12030;50.376;8.762;2022-07-22T15:30:26;33.80;78.40
23703;DHT22;12030;50.376;8.762;2022-07-22T15:32:52;33.90;74.10
23703;DHT22;12030;50.376;8.762;2022-07-22T15:35:17;34.00;77.30
23703;DHT22;12030;50.376;8.762;2022-07-22T15:37:43;34.20;75.40
23703;DHT22;12030;50.376;8.762;2022-07-22T15:40:09;34.30;73.90
23703;DHT22;12030;50.376;8.762;2022-07-22T15:42:37;33.90;72.90
23703;DHT22;12030;50.376;8.762;2022-07-22T15:45:03;33.20;74.10
23703;DHT22;12030;50.376;8.762;2022-07-22T15:47:29;32.50;74.50